createdAt,value
2017-09-28T00:00:43.509Z,26.43
2017-09-28T00:03:11.978Z,24.50
2017-09-28T00:05:40.426Z,34.93
2017-09-28T00:08:09.662Z,25.47
2017-09-28T00:10:38.107Z,23.50
2017-09-28T00:13:07.347Z,32.13
2017-09-28T00:15:35.794Z,34.67
2017-09-28T00:18:05.014Z,24.43
2017-09-28T00:20:33.486Z,31.70
2017-09-28T00:23:01.934Z,23.17
2017-09-28T00:25:30.409Z,23.53
2017-09-28T00:27:58.854Z,22.10
2017-09-28T00:30:27.341Z,21.40
2017-09-28T00:32:55.786Z,39.93
2017-09-28T00:35:25.013Z,24.37
2017-09-28T00:37:53.454Z,24.33
2017-09-28T00:40:22.689Z,23.80
2017-09-28T00:42:51.133Z,25.20
2017-09-28T00:45:20.462Z,25.37
2017-09-28T00:47:48.968Z,22.43
2017-09-28T00:50:17.549Z,29.30
2017-09-28T00:52:46.030Z,31.03
2017-09-28T00:55:14.619Z,23.40
2017-09-28T00:57:43.061Z,25.03
2017-09-28T01:00:12.302Z,28.83
2017-09-28T01:02:40.776Z,31.90
2017-09-28T01:05:09.222Z,20.53
2017-09-28T01:07:38.454Z,33.80
2017-09-28T01:10:06.893Z,27.97
2017-09-28T01:12:36.133Z,34.63
2017-09-28T01:15:04.631Z,27.37
2017-09-28T01:17:33.092Z,25.33
2017-09-28T01:20:01.590Z,24.23
2017-09-28T01:22:30.066Z,30.90
2017-09-28T01:24:58.558Z,28.20
2017-09-28T01:27:27.137Z,36.30
2017-09-28T01:29:55.582Z,30.90
2017-09-28T01:32:24.818Z,26.70
2017-09-28T01:34:53.265Z,47.60
2017-09-28T01:37:22.522Z,28.20
2017-09-28T01:39:50.968Z,23.60
2017-09-28T01:42:19.414Z,20.77
2017-09-28T01:44:48.653Z,24.93
2017-09-28T01:47:17.098Z,27.67
2017-09-28T01:49:46.331Z,28.70
2017-09-28T01:52:14.779Z,26.53
2017-09-28T01:54:44.125Z,33.07
2017-09-28T01:57:12.573Z,32.03
2017-09-28T01:59:41.910Z,28.93
2017-09-28T02:02:10.354Z,34.03
2017-09-28T02:04:39.690Z,22.60
2017-09-28T02:07:08.142Z,25.57
2017-09-28T02:09:37.382Z,26.60
2017-09-28T02:12:05.834Z,23.90
2017-09-28T02:14:34.318Z,28.40
2017-09-28T02:17:02.764Z,33.77
2017-09-28T02:19:31.230Z,23.83
2017-09-28T02:21:59.681Z,27.60
2017-09-28T02:24:28.129Z,29.33
2017-09-28T02:26:57.573Z,30.20
2017-09-28T02:29:26.018Z,45.57
2017-09-28T02:31:55.346Z,32.83
2017-09-28T02:34:23.834Z,27.93
2017-09-28T02:36:52.301Z,33.10
2017-09-28T02:39:20.746Z,32.17
2017-09-28T02:41:50.605Z,33.67
2017-09-28T02:44:19.049Z,31.73
2017-09-28T02:46:48.392Z,27.20
2017-09-28T02:49:16.846Z,29.73
2017-09-28T02:51:45.317Z,30.23
2017-09-28T02:54:14.546Z,29.00
2017-09-28T02:56:43.038Z,30.17
2017-09-28T02:59:11.521Z,32.20
2017-09-28T03:01:40.021Z,33.27
2017-09-28T03:04:08.587Z,28.60
2017-09-28T03:06:37.070Z,24.93
2017-09-28T03:09:05.655Z,23.63
2017-09-28T03:11:34.102Z,27.47
2017-09-28T03:14:03.334Z,35.67
2017-09-28T03:16:31.786Z,31.47
2017-09-28T03:19:00.262Z,25.97
2017-09-28T03:21:29.474Z,27.27
2017-09-28T03:23:57.941Z,29.67
2017-09-28T03:26:27.149Z,28.47
2017-09-28T03:28:55.625Z,27.33
2017-09-28T03:31:24.838Z,27.33
2017-09-28T03:33:53.309Z,32.53
2017-09-28T03:36:21.749Z,39.77
2017-09-28T03:38:50.222Z,32.53
2017-09-28T03:41:18.685Z,39.77
2017-09-28T03:43:47.154Z,35.03
2017-09-28T03:46:15.627Z,38.47
2017-09-28T03:48:44.074Z,41.00
2017-09-28T03:51:13.431Z,31.17
2017-09-28T03:53:41.880Z,32.83
2017-09-28T03:56:10.395Z,42.53
2017-09-28T03:58:38.842Z,36.73
2017-09-28T04:01:08.076Z,33.77
2017-09-28T04:03:36.558Z,30.47
2017-09-28T04:06:05.030Z,28.50
2017-09-28T04:08:33.522Z,37.87
2017-09-28T04:11:01.999Z,32.90
2017-09-28T04:13:30.449Z,31.20
2017-09-28T04:15:59.787Z,33.17
2017-09-28T04:18:28.269Z,38.90
2017-09-28T04:20:56.854Z,27.60
2017-09-28T04:23:25.306Z,34.40
2017-09-28T04:25:53.797Z,31.10
2017-09-28T04:28:22.255Z,29.07
2017-09-28T04:30:51.478Z,33.53
2017-09-28T04:33:19.949Z,29.33
2017-09-28T04:35:49.166Z,33.73
2017-09-28T04:38:17.633Z,32.97
2017-09-28T04:40:46.223Z,29.87
2017-09-28T04:43:14.697Z,27.93
2017-09-28T04:45:43.927Z,29.53
2017-09-28T04:48:12.394Z,24.23
2017-09-28T04:50:40.847Z,28.07
2017-09-28T04:53:10.192Z,43.53
2017-09-28T04:55:38.641Z,36.33
2017-09-28T04:58:07.118Z,39.97
2017-09-28T05:00:36.333Z,47.13
2017-09-28T05:03:04.837Z,31.37
2017-09-28T05:05:33.281Z,37.93
2017-09-28T05:08:02.498Z,32.70
2017-09-28T05:10:30.969Z,35.57
2017-09-28T05:12:59.483Z,40.37
2017-09-28T05:15:27.964Z,33.10
2017-09-28T05:17:56.449Z,36.60
2017-09-28T05:20:24.914Z,37.33
2017-09-28T05:22:53.412Z,33.47
2017-09-28T05:25:21.995Z,49.70
2017-09-28T05:27:50.442Z,33.40
2017-09-28T05:30:19.678Z,39.43
2017-09-28T05:32:48.146Z,29.60
2017-09-28T05:35:16.618Z,37.60
2017-09-28T05:37:45.062Z,39.30
2017-09-28T05:40:13.604Z,29.80
2017-09-28T05:42:42.053Z,34.57
2017-09-28T05:45:11.286Z,31.67
2017-09-28T05:47:39.734Z,34.37
2017-09-28T05:50:09.068Z,39.43
2017-09-28T05:52:37.538Z,35.63
2017-09-28T05:55:06.034Z,46.27
2017-09-28T05:57:34.617Z,33.10
2017-09-28T06:00:03.061Z,34.70
2017-09-28T06:02:32.399Z,38.40
2017-09-28T06:05:00.846Z,35.97
2017-09-28T06:07:30.081Z,37.80
2017-09-28T06:09:58.563Z,28.07
2017-09-28T06:12:27.034Z,34.17
2017-09-28T06:14:55.482Z,29.13
2017-09-28T06:17:24.721Z,32.93
2017-09-28T06:19:53.171Z,22.93
2017-09-28T06:22:22.509Z,29.10
2017-09-28T06:24:50.958Z,28.40
2017-09-28T06:27:20.218Z,37.80
2017-09-28T06:29:48.666Z,29.03
2017-09-28T06:32:17.154Z,29.77
2017-09-28T06:34:45.738Z,31.50
2017-09-28T06:37:14.186Z,32.10
2017-09-28T06:39:43.419Z,34.30
2017-09-28T06:42:12.402Z,35.60
2017-09-28T06:44:40.901Z,31.10
2017-09-28T06:47:09.378Z,38.73
2017-09-28T06:49:37.846Z,30.27
2017-09-28T06:52:06.294Z,28.53
2017-09-28T06:54:35.534Z,41.10
2017-09-28T06:57:03.963Z,38.47
2017-09-28T06:59:32.505Z,39.33
2017-09-28T07:02:00.986Z,40.20
2017-09-28T07:04:30.265Z,31.77
2017-09-28T07:06:58.771Z,36.90
2017-09-28T07:09:27.241Z,34.37
2017-09-28T07:11:55.689Z,54.63
2017-09-28T07:14:24.943Z,32.53
2017-09-28T07:16:53.413Z,37.70
2017-09-28T07:19:21.903Z,39.70
2017-09-28T07:21:50.369Z,30.97
2017-09-28T07:24:18.814Z,32.77
2017-09-28T07:26:48.048Z,35.10
2017-09-28T07:29:16.493Z,32.60
2017-09-28T07:31:45.725Z,45.53
2017-09-28T07:34:14.223Z,40.33
2017-09-28T07:36:42.807Z,43.20
2017-09-28T07:39:11.289Z,35.50
2017-09-28T07:41:39.869Z,33.87
2017-09-28T07:44:08.354Z,43.67
2017-09-28T07:46:36.909Z,29.43
2017-09-28T07:49:06.107Z,30.77
2017-09-28T07:51:35.367Z,34.90
2017-09-28T07:54:03.819Z,34.33
2017-09-28T07:56:32.302Z,30.70
2017-09-28T07:59:00.882Z,41.37
2017-09-28T08:01:29.336Z,37.63
2017-09-28T08:03:58.669Z,28.27
2017-09-28T08:06:27.122Z,41.77
2017-09-28T08:08:55.635Z,26.87
2017-09-28T08:11:24.116Z,50.57
2017-09-28T08:13:52.585Z,32.83
2017-09-28T08:16:21.029Z,28.37
2017-09-28T08:18:50.383Z,32.63
2017-09-28T08:21:18.825Z,34.53
2017-09-28T08:23:48.070Z,29.63
2017-09-28T08:26:16.539Z,36.97
2017-09-28T08:28:45.015Z,34.50
2017-09-28T08:31:13.510Z,33.07
2017-09-28T08:33:41.990Z,31.30
2017-09-28T08:36:10.569Z,34.33
2017-09-28T08:38:39.022Z,33.60
2017-09-28T08:41:08.258Z,29.27
2017-09-28T08:43:36.739Z,30.53
2017-09-28T08:46:05.214Z,34.47
2017-09-28T08:48:33.665Z,36.73
2017-09-28T08:51:02.898Z,26.50
2017-09-28T08:53:31.345Z,36.63
2017-09-28T08:56:00.582Z,32.47
2017-09-28T08:58:29.060Z,30.33
2017-09-28T09:00:57.545Z,40.50
2017-09-28T09:03:25.993Z,63.10
2017-09-28T09:05:55.230Z,30.60
2017-09-28T09:08:23.678Z,31.50
2017-09-28T09:10:52.146Z,39.70
2017-09-28T09:13:21.389Z,28.70
2017-09-28T09:15:49.974Z,35.43
2017-09-28T09:18:18.453Z,26.67
2017-09-28T09:20:46.896Z,32.43
2017-09-28T09:23:16.138Z,38.77
2017-09-28T09:25:44.617Z,35.23
2017-09-28T09:28:13.090Z,26.17
2017-09-28T09:30:41.534Z,29.83
2017-09-28T09:33:10.770Z,29.73
2017-09-28T09:35:39.214Z,27.67
2017-09-28T09:38:08.544Z,29.90
2017-09-28T09:40:36.986Z,34.33
2017-09-28T09:43:05.527Z,30.20
2017-09-28T09:45:33.973Z,30.80
2017-09-28T09:48:03.306Z,27.90
2017-09-28T09:50:31.758Z,28.10
2017-09-28T09:53:01.096Z,38.23
2017-09-28T09:55:29.541Z,29.83
2017-09-28T09:57:59.081Z,27.27
2017-09-28T10:00:27.525Z,33.77
2017-09-28T10:02:56.753Z,40.13
2017-09-28T10:05:25.347Z,34.93
2017-09-28T10:07:57.581Z,27.40
2017-09-28T10:10:30.418Z,27.00
2017-09-28T10:13:05.669Z,30.57
2017-09-28T10:15:38.329Z,30.27
2017-09-28T10:18:06.773Z,42.63
2017-09-28T10:20:36.006Z,36.27
2017-09-28T10:23:04.486Z,25.43
2017-09-28T10:25:32.954Z,36.13
2017-09-28T10:28:01.455Z,35.60
2017-09-28T10:30:29.934Z,31.43
2017-09-28T10:32:58.401Z,35.13
2017-09-28T10:35:26.847Z,33.07
2017-09-28T10:37:56.081Z,38.63
2017-09-28T10:40:24.529Z,31.83
2017-09-28T10:42:53.756Z,28.00
2017-09-28T10:45:22.256Z,37.33
2017-09-28T10:47:50.726Z,32.73
2017-09-28T10:50:19.222Z,36.40
2017-09-28T10:52:47.805Z,37.47
2017-09-28T10:55:16.287Z,40.60
2017-09-28T10:57:44.871Z,36.40
2017-09-28T11:00:13.354Z,32.17
2017-09-28T11:02:41.826Z,29.63
2017-09-28T11:05:10.318Z,28.97
2017-09-28T11:07:38.800Z,36.03
2017-09-28T11:10:07.282Z,31.13
2017-09-28T11:12:35.725Z,33.87
2017-09-28T11:15:05.045Z,28.43
2017-09-28T11:17:33.547Z,33.43
2017-09-28T11:20:02.130Z,30.40
2017-09-28T11:22:30.583Z,40.03
2017-09-28T11:24:59.821Z,31.20
2017-09-28T11:27:28.294Z,45.03
2017-09-28T11:29:56.766Z,30.93
2017-09-28T11:32:25.211Z,36.73
2017-09-28T11:34:54.445Z,34.33
2017-09-28T11:37:22.977Z,29.60
2017-09-28T11:39:51.448Z,30.43
2017-09-28T11:42:19.894Z,25.47
2017-09-28T11:44:48.384Z,39.20
2017-09-28T11:47:16.830Z,27.20
2017-09-28T11:49:46.092Z,32.60
2017-09-28T11:52:14.537Z,29.53
2017-09-28T11:54:42.989Z,27.67
2017-09-28T11:57:12.229Z,32.70
2017-09-28T11:59:40.677Z,31.27
2017-09-28T12:02:09.918Z,36.03
2017-09-28T12:04:38.369Z,28.70
2017-09-28T12:07:06.837Z,33.83
2017-09-28T12:09:36.077Z,23.30
2017-09-28T12:12:04.548Z,39.87
2017-09-28T12:14:33.012Z,31.37
2017-09-28T12:17:01.485Z,36.70
2017-09-28T12:19:30.717Z,36.80
2017-09-28T12:21:59.189Z,37.37
2017-09-28T12:24:27.633Z,33.40
2017-09-28T12:26:56.868Z,28.03
2017-09-28T12:29:25.308Z,29.00
2017-09-28T12:31:54.565Z,38.00
2017-09-28T12:34:23.009Z,26.43
2017-09-28T12:36:52.242Z,36.83
2017-09-28T12:39:20.714Z,28.67
2017-09-28T12:41:49.203Z,34.70
2017-09-28T12:44:17.674Z,39.43
2017-09-28T12:46:46.314Z,31.17
2017-09-28T12:49:15.553Z,28.60
2017-09-28T12:51:43.998Z,29.63
2017-09-28T12:54:12.474Z,50.97
2017-09-28T12:56:41.019Z,35.23
2017-09-28T12:59:09.604Z,34.10
2017-09-28T13:01:38.113Z,33.57
2017-09-28T13:04:06.694Z,34.73
2017-09-28T13:06:35.142Z,32.67
2017-09-28T13:09:03.613Z,33.50
2017-09-28T13:11:32.061Z,34.80
2017-09-28T13:14:01.394Z,34.20
2017-09-28T13:16:29.900Z,27.93
2017-09-28T13:18:58.395Z,36.27
2017-09-28T13:21:26.874Z,33.57
2017-09-28T13:23:55.322Z,35.67
2017-09-28T13:26:23.830Z,33.33
2017-09-28T13:28:52.277Z,31.93
2017-09-28T13:31:20.770Z,32.03
2017-09-28T13:33:49.274Z,28.40
2017-09-28T13:36:17.854Z,32.27
2017-09-28T13:38:46.340Z,27.03
2017-09-28T13:41:15.028Z,40.00
2017-09-28T13:43:43.510Z,49.93
2017-09-28T13:46:12.090Z,30.80
2017-09-28T13:48:40.538Z,35.23
2017-09-28T13:51:09.878Z,33.70
2017-09-28T13:53:39.259Z,31.90
2017-09-28T13:56:07.762Z,26.77
2017-09-28T13:58:36.233Z,40.30
2017-09-28T14:01:04.726Z,28.70
2017-09-28T14:03:33.203Z,33.00
2017-09-28T14:06:01.659Z,30.50
2017-09-28T14:08:30.129Z,31.53
2017-09-28T14:10:59.341Z,34.63
2017-09-28T14:13:27.810Z,31.03
2017-09-28T14:15:57.054Z,39.03
2017-09-28T14:18:25.637Z,35.20
2017-09-28T14:20:54.078Z,33.87
2017-09-28T14:23:23.319Z,36.17
2017-09-28T14:25:51.802Z,35.53
2017-09-28T14:28:20.384Z,34.60
2017-09-28T14:30:48.830Z,29.83
2017-09-28T14:33:17.281Z,29.20
2017-09-28T14:35:45.757Z,41.50
2017-09-28T14:38:14.202Z,33.53
2017-09-28T14:40:42.670Z,32.87
2017-09-28T14:43:11.117Z,31.20
2017-09-28T14:45:39.696Z,38.87
2017-09-28T14:48:08.142Z,35.97
2017-09-28T14:50:36.608Z,70.17
2017-09-28T14:53:05.054Z,30.87
2017-09-28T14:55:34.291Z,39.30
2017-09-28T14:58:02.737Z,36.33
2017-09-28T15:00:32.084Z,30.00
2017-09-28T15:03:00.526Z,38.33
2017-09-28T15:05:29.764Z,32.50
2017-09-28T15:07:58.250Z,37.77
2017-09-28T15:10:26.817Z,29.60
2017-09-28T15:12:55.261Z,34.70
2017-09-28T15:15:24.478Z,29.83
2017-09-28T15:17:53.714Z,31.93
2017-09-28T15:20:22.162Z,24.07
2017-09-28T15:22:51.597Z,27.17
2017-09-28T15:25:20.078Z,29.03
2017-09-28T15:27:48.555Z,28.30
2017-09-28T15:30:17.042Z,45.87
2017-09-28T15:32:45.513Z,28.00
2017-09-28T15:35:14.006Z,26.70
2017-09-28T15:37:42.474Z,26.17
2017-09-28T15:40:10.921Z,34.40
2017-09-28T15:42:40.157Z,35.13
2017-09-28T15:45:08.602Z,32.37
2017-09-28T15:47:37.837Z,44.30
2017-09-28T15:50:06.337Z,34.80
2017-09-28T15:52:34.916Z,32.13
2017-09-28T15:55:03.366Z,33.13
2017-09-28T15:57:32.601Z,35.87
2017-09-28T16:00:01.070Z,48.10
2017-09-28T16:02:29.532Z,40.23
2017-09-28T16:04:58.048Z,33.70
2017-09-28T16:07:26.494Z,39.87
2017-09-28T16:09:55.836Z,33.53
2017-09-28T16:12:24.286Z,44.87
2017-09-28T16:14:52.767Z,35.03
2017-09-28T16:17:21.214Z,39.13
2017-09-28T16:19:49.754Z,34.90
2017-09-28T16:22:18.202Z,37.00
2017-09-28T16:24:47.497Z,29.60
2017-09-28T16:27:17.526Z,34.87
2017-09-28T16:29:45.995Z,31.83
2017-09-28T16:32:15.214Z,29.57
2017-09-28T16:34:43.705Z,28.70
2017-09-28T16:37:12.191Z,27.67
2017-09-28T16:39:40.638Z,30.50
2017-09-28T16:42:09.965Z,30.80
2017-09-28T16:44:38.409Z,32.23
2017-09-28T16:47:06.949Z,34.07
2017-09-28T16:49:35.435Z,31.37
2017-09-28T16:52:03.907Z,31.53
2017-09-28T16:54:32.395Z,30.00
2017-09-28T16:57:00.867Z,33.27
2017-09-28T16:59:29.314Z,52.17
2017-09-28T17:01:58.556Z,32.57
2017-09-28T17:04:27.655Z,32.80
2017-09-28T17:06:56.132Z,33.77
2017-09-28T17:09:24.578Z,45.07
2017-09-28T17:11:53.918Z,51.03
2017-09-28T17:14:22.494Z,26.93
2017-09-28T17:16:50.938Z,29.43
2017-09-28T17:19:20.173Z,28.63
2017-09-28T17:21:48.665Z,29.67
2017-09-28T17:24:17.133Z,31.70
2017-09-28T17:26:45.578Z,44.63
2017-09-28T17:29:14.817Z,38.13
2017-09-28T17:31:43.306Z,53.67
2017-09-28T17:34:11.777Z,29.90
2017-09-28T17:36:40.230Z,45.70
2017-09-28T17:39:09.461Z,34.80
2017-09-28T17:41:37.912Z,39.50
2017-09-28T17:44:07.255Z,27.60
2017-09-28T17:46:35.706Z,43.67
2017-09-28T17:49:04.218Z,37.07
2017-09-28T17:51:32.691Z,42.23
2017-09-28T17:54:01.182Z,34.30
2017-09-28T17:56:29.666Z,35.10
2017-09-28T17:58:58.246Z,42.63
2017-09-28T18:01:26.730Z,35.80
2017-09-28T18:03:55.179Z,39.60
2017-09-28T18:06:24.509Z,54.60
2017-09-28T18:08:52.954Z,39.53
2017-09-28T18:11:22.196Z,40.20
2017-09-28T18:13:50.642Z,43.50
2017-09-28T18:16:19.876Z,39.43
2017-09-28T18:18:48.329Z,38.20
2017-09-28T18:21:16.798Z,41.53
2017-09-28T18:23:46.011Z,49.60
2017-09-28T18:26:14.487Z,45.33
2017-09-28T18:28:43.721Z,36.03
2017-09-28T18:31:12.194Z,48.07
2017-09-28T18:33:40.642Z,42.43
2017-09-28T18:36:09.887Z,44.90
2017-09-28T18:38:38.334Z,45.77
2017-09-28T18:41:07.566Z,33.60
2017-09-28T18:43:36.013Z,35.33
2017-09-28T18:46:04.466Z,40.10
2017-09-28T18:48:32.946Z,45.97
2017-09-28T18:51:01.394Z,46.17
2017-09-28T18:53:29.863Z,34.53
2017-09-28T18:55:58.358Z,43.43
2017-09-28T18:58:26.831Z,39.53
2017-09-28T19:00:55.282Z,37.30
2017-09-28T19:03:24.595Z,45.10
2017-09-28T19:05:53.042Z,46.47
2017-09-28T19:08:21.510Z,38.60
2017-09-28T19:10:49.962Z,56.43
2017-09-28T19:13:18.420Z,45.60
2017-09-28T19:15:46.862Z,38.20
2017-09-28T19:18:15.353Z,42.63
2017-09-28T19:20:43.944Z,48.67
2017-09-28T19:23:13.159Z,46.27
2017-09-28T19:25:42.597Z,50.13
2017-09-28T19:28:11.054Z,36.37
2017-09-28T19:30:39.522Z,36.90
2017-09-28T19:33:08.735Z,43.30
2017-09-28T19:35:37.210Z,45.30
2017-09-28T19:38:05.657Z,42.27
2017-09-28T19:40:34.133Z,44.73
2017-09-28T19:43:02.583Z,41.00
2017-09-28T19:45:31.054Z,43.10
2017-09-28T19:47:59.503Z,42.63
2017-09-28T19:50:28.848Z,38.27
2017-09-28T19:52:57.376Z,51.30
2017-09-28T19:55:25.915Z,60.30
2017-09-28T19:57:54.367Z,47.57
2017-09-28T20:00:22.833Z,51.00
2017-09-28T20:02:52.046Z,56.03
2017-09-28T20:05:20.533Z,48.30
2017-09-28T20:07:49.038Z,46.73
2017-09-28T20:10:17.522Z,56.30
2017-09-28T20:12:46.109Z,53.23
2017-09-28T20:15:14.590Z,49.33
2017-09-28T20:17:43.064Z,42.03
2017-09-28T20:20:11.523Z,46.03
2017-09-28T20:22:39.993Z,37.30
2017-09-28T20:25:09.234Z,52.97
2017-09-28T20:27:37.714Z,48.00
2017-09-28T20:30:06.202Z,50.37
2017-09-28T20:32:34.668Z,39.50
2017-09-28T20:35:03.165Z,44.60
2017-09-28T20:37:31.634Z,49.80
2017-09-28T20:40:00.087Z,47.33
2017-09-28T20:42:29.428Z,47.20
2017-09-28T20:44:57.874Z,40.33
2017-09-28T20:47:27.089Z,50.63
2017-09-28T20:49:55.591Z,42.90
2017-09-28T20:52:24.039Z,49.40
2017-09-28T20:54:53.274Z,44.10
2017-09-28T20:57:21.753Z,47.27
2017-09-28T20:59:50.314Z,47.07
2017-09-28T21:02:18.821Z,57.17
2017-09-28T21:04:47.290Z,42.30
2017-09-28T21:07:15.738Z,59.57
2017-09-28T21:09:45.085Z,48.60
2017-09-28T21:12:13.534Z,39.87
2017-09-28T21:14:42.018Z,50.90
2017-09-28T21:17:11.229Z,48.53
2017-09-28T21:19:39.707Z,54.93
2017-09-28T21:22:08.156Z,61.03
2017-09-28T21:24:37.308Z,44.77
2017-09-28T21:27:05.781Z,49.70
2017-09-28T21:29:34.239Z,57.10
2017-09-28T21:32:03.478Z,41.70
2017-09-28T21:34:31.925Z,47.90
2017-09-28T21:37:00.436Z,46.57
2017-09-28T21:39:28.917Z,51.77
2017-09-28T21:41:57.385Z,50.77
2017-09-28T21:44:25.882Z,57.67
2017-09-28T21:46:54.351Z,42.40
2017-09-28T21:49:22.846Z,53.70
2017-09-28T21:51:51.317Z,60.93
2017-09-28T21:54:19.770Z,46.60
2017-09-28T21:56:49.069Z,45.13
2017-09-28T21:59:18.312Z,54.53
2017-09-28T22:01:46.878Z,53.40
2017-09-28T22:04:15.336Z,49.73
2017-09-28T22:06:44.575Z,52.07
2017-09-28T22:09:13.026Z,55.23
2017-09-28T22:11:42.258Z,49.37
2017-09-28T22:14:10.729Z,57.73
2017-09-28T22:16:39.219Z,61.47
2017-09-28T22:19:07.817Z,60.50
2017-09-28T22:21:36.289Z,62.13
2017-09-28T22:24:04.757Z,51.00
2017-09-28T22:26:33.206Z,55.77
2017-09-28T22:29:02.552Z,53.87
2017-09-28T22:31:30.998Z,60.10
2017-09-28T22:34:00.339Z,63.13
2017-09-28T22:36:28.786Z,78.77
2017-09-28T22:38:58.118Z,50.73
2017-09-28T22:41:26.562Z,59.90
2017-09-28T22:43:55.817Z,66.80
2017-09-28T22:46:24.261Z,47.13
2017-09-28T22:48:52.767Z,62.53
2017-09-28T22:51:21.349Z,62.87
2017-09-28T22:53:49.902Z,60.40
2017-09-28T22:56:19.134Z,53.90
2017-09-28T22:58:47.577Z,51.37
2017-09-28T23:01:16.812Z,56.70
2017-09-28T23:09:39.943Z,49.50
2017-09-28T23:12:08.422Z,55.67
2017-09-28T23:14:36.870Z,77.50
2017-09-28T23:17:05.332Z,66.53
2017-09-28T23:19:33.842Z,55.57
2017-09-28T23:22:02.423Z,56.33
2017-09-28T23:24:30.875Z,54.70
2017-09-28T23:26:59.387Z,83.43
2017-09-28T23:29:27.870Z,56.20
2017-09-28T23:31:56.337Z,57.60
2017-09-28T23:34:26.935Z,54.77
2017-09-28T23:36:56.174Z,56.77
2017-09-28T23:39:24.627Z,59.70
2017-09-28T23:41:53.867Z,55.80
2017-09-28T23:44:22.345Z,63.50
2017-09-28T23:46:50.791Z,61.63
2017-09-28T23:49:20.134Z,50.00
2017-09-28T23:51:48.582Z,63.10
2017-09-28T23:54:17.045Z,61.77
2017-09-28T23:56:46.293Z,58.43
2017-09-28T23:59:14.879Z,56.90
